WetterOnline ( http://www.wetteronline.de )

Wetter aktuell Bonn

Aktuelles Wetter: Roleber (162m)

6-stündlich | Neueste Meldungen
Ortszeit Temperatur Wetter
Mo, 20.08. 14:00 22.0° C bedeckt
Mo, 20.08. 8:00 18.8° C bewölkt
Mo, 20.08. 2:00 19.2° C wolkenlos
So, 19.08. 20:00 24.8° C wolkenlos
So, 19.08. 14:00 25.1° C leicht bewölkt
So, 19.08. 8:00 15.6° C leicht bewölkt
So, 19.08. 2:00 14.6° C wolkig
Sa, 18.08. 20:00 22.8° C leicht bewölkt
Ortszeit Temperatur Wetter
Mo, 20.08. 14:30 22.5° C bedeckt
Mo, 20.08. 14:20 22.5° C bedeckt
Mo, 20.08. 14:10 22.8° C bedeckt
Mo, 20.08. 14:00 22.0° C bedeckt
Mo, 20.08. 13:50 22.0° C bedeckt
Mo, 20.08. 13:40 21.7° C bedeckt
Mo, 20.08. 13:30 21.1° C bewölkt
Mo, 20.08. 13:00 21.1° C bedeckt
Mo, 20.08. 12:30 21.9° C bewölkt
Mo, 20.08. 12:00 21.1° C bedeckt
Mo, 20.08. 11:30 21.5° C bedeckt
Ortszeit Relative Feuchte Sichtweite
Mo, 20.08. 14:00 70% 45 km
Mo, 20.08. 8:00 80% 29 km
Mo, 20.08. 2:00 75% 30 km
So, 19.08. 20:00 45% 35 km
So, 19.08. 14:00 46% 35 km
So, 19.08. 8:00 81% 23 km
So, 19.08. 2:00 84% 30 km
Sa, 18.08. 20:00 45% 45 km
Ortszeit Relative Feuchte Sichtweite
Mo, 20.08. 14:30 70% 30 km
Mo, 20.08. 14:20 70% -
Mo, 20.08. 14:10 68% -
Mo, 20.08. 14:00 70% 45 km
Mo, 20.08. 13:50 70% -
Mo, 20.08. 13:40 71% -
Mo, 20.08. 13:30 73% 35 km
Mo, 20.08. 13:00 71% 35 km
Mo, 20.08. 12:30 66% 35 km
Mo, 20.08. 12:00 70% 45 km
Mo, 20.08. 11:30 69% 35 km
Ortszeit Niederschlagsmenge Niederschlagsart
Mo, 20.08. 14:00 0.1 l/m2 in 6 Std. Regen
Mo, 20.08. 8:00 0.0 l/m2 in 12 Std. -
Mo, 20.08. 2:00 0.0 l/m2 in 6 Std. -
So, 19.08. 20:00 0.0 l/m2 in 12 Std. -
So, 19.08. 14:00 0.0 l/m2 in 6 Std. -
So, 19.08. 8:00 0.0 l/m2 in 12 Std. -
So, 19.08. 2:00 0.0 l/m2 in 6 Std. -
Sa, 18.08. 20:00 0.0 l/m2 in 12 Std. -
Ortszeit Niederschlagsmenge Niederschlagsart
Mo, 20.08. 14:30 0.0 l/m2 in 1 Std. -
Mo, 20.08. 14:20 keine Meldung -
Mo, 20.08. 14:10 keine Meldung -
Mo, 20.08. 14:00 0.0 l/m2 in 1 Std. Regen
Mo, 20.08. 13:50 keine Meldung -
Mo, 20.08. 13:40 keine Meldung -
Mo, 20.08. 13:30 0.0 l/m2 in 1 Std. -
Mo, 20.08. 13:00 0.1 l/m2 in 1 Std. Regen
Mo, 20.08. 12:30 0.0 l/m2 in 1 Std. -
Mo, 20.08. 12:00 0.0 l/m2 in 1 Std. -
Mo, 20.08. 11:30 0.0 l/m2 in 1 Std. -
Ortszeit Stärke Spitze Richtung
km/h Bft. km/h Grad Sektor
Mo, 20.08. 14:00 7 2 18 310° NW
Mo, 20.08. 8:00 7 2 26 290° W
Mo, 20.08. 2:00 4 1 14 260° W
So, 19.08. 20:00 9 2 24 290° W
So, 19.08. 14:00 6 1 17 310° NW
So, 19.08. 8:00 4 1 7 220° SW
So, 19.08. 2:00 4 1 22 270° W
Sa, 18.08. 20:00 9 2 24 310° NW
Ortszeit Stärke Spitze Richtung
km/h Bft. km/h Grad Sektor
Mo, 20.08. 14:30 7 2 14 320° NW
Mo, 20.08. 14:20 7 2 - 320° NW
Mo, 20.08. 14:10 7 2 - 300° NW
Mo, 20.08. 14:00 7 2 18 310° NW
Mo, 20.08. 13:50 7 2 - 310° NW
Mo, 20.08. 13:40 7 2 - 320° NW
Mo, 20.08. 13:30 11 2 18 320° NW
Mo, 20.08. 13:00 4 1 14 300° NW
Mo, 20.08. 12:30 7 2 14 300° NW
Mo, 20.08. 12:00 7 2 18 280° W
Mo, 20.08. 11:30 7 2 11 230° SW
Ortszeit Untergrenze Bedeckung Gattung
total tief tief mittel hoch
Mo, 20.08. 14:00 870 m 8/8 8/8 - - -
Mo, 20.08. 8:00 510 m 7/8 7/8 - - -
Mo, 20.08. 2:00 - 0/8 0/8 - - -
So, 19.08. 20:00 - 0/8 0/8 - - -
So, 19.08. 14:00 2700 m 5/8 1/8 - - -
So, 19.08. 8:00 2700 m 2/8 - - - -
So, 19.08. 2:00 9000 m 8/8 0/8 - - -
Sa, 18.08. 20:00 10500 m 7/8 0/8 - - -
Ortszeit Bedeckungsgrad in Achtel und Wolkenuntergrenze
Mo, 20.08. 14:30 4(630m) 7(990m) 8(1500m)
Mo, 20.08. 14:20 4(630m) 7(990m) 8(1500m)
Mo, 20.08. 14:10 2(660m) 6(1080m) 8(1500m)
Mo, 20.08. 14:00 5(870m) 8(1290m) 8(1500m)
Mo, 20.08. 13:50 5(870m) 8(1290m)
Mo, 20.08. 13:40 1(570m) 4(900m) 8(1290m)
Mo, 20.08. 13:30 6(570m) 7(900m) 7(1050m)
Mo, 20.08. 13:00 5(600m) 7(810m) 8(1050m)
Mo, 20.08. 12:30 7(690m) 7(930m) 7(1500m)
Mo, 20.08. 12:00 7(630m) 8(1500m)
Mo, 20.08. 11:30 3(600m) 8(1500m)
Ortszeit Luftdruck NN (hPa) Tendenz (hPa in 3 Std.)
Mo, 20.08. 14:00 1020 + 0,2
Mo, 20.08. 8:00 1019 + 0,6
Mo, 20.08. 2:00 1019 + 0,3
So, 19.08. 20:00 1018 - 0,5
So, 19.08. 14:00 1020 - 1,7
So, 19.08. 8:00 1023 0,0
So, 19.08. 2:00 1023 + 0,5
Sa, 18.08. 20:00 1021 + 0,3
Ortszeit Luftdruck NN (hPa) Tendenz (hPa in 3 Std.)
Mo, 20.08. 14:30 1020 + 0,2
Mo, 20.08. 14:20 1020 keine Meldung
Mo, 20.08. 14:10 1020 keine Meldung
Mo, 20.08. 14:00 1020 + 0,2
Mo, 20.08. 13:50 1020 keine Meldung
Mo, 20.08. 13:40 1020 keine Meldung
Mo, 20.08. 13:30 1020 + 0,2
Mo, 20.08. 13:00 1020 + 0,2
Mo, 20.08. 12:30 1020 + 0,3
Mo, 20.08. 12:00 1020 + 0,7
Mo, 20.08. 11:30 1020 + 0,6
Ortszeit Schneehöhe (cm)
Mo, 20.08. 14:00 -
Mo, 20.08. 8:00 -
Mo, 20.08. 2:00 -
So, 19.08. 20:00 -
So, 19.08. 14:00 -
So, 19.08. 8:00 -
So, 19.08. 2:00 -
Sa, 18.08. 20:00 -
Ortszeit Schneehöhe (cm)
Mo, 20.08. 14:30 -
Mo, 20.08. 14:20 -
Mo, 20.08. 14:10 -
Mo, 20.08. 14:00 -
Mo, 20.08. 13:50 -
Mo, 20.08. 13:40 -
Mo, 20.08. 13:30 -
Mo, 20.08. 13:00 -
Mo, 20.08. 12:30 -
Mo, 20.08. 12:00 -
Mo, 20.08. 11:30 -
Link zu dieser Seite / Seite empfehlen

Das Wetter in ...